Time;durP1;ratioP1;P1;durP2;ratioP2;P2;SDS_P1;SDS_P2;PMS_P1;PMS_P2;Temp;Humidity;BMP_temperature;BMP_pressure;BME280_temperature;BME280_humidity;BME280_pressure;Samples;Min_cycle;Max_cycle;Signal;HPM_P1;HPM_P2
2022/04/17 15:23:21;;;;;;;;;;;;;;;13.18;36.95;98438.56;4860569;29;19975;-68
2022/04/17 15:25:48;;;;;;;;;;;;;;;13.14;36.70;98425.34;4853717;29;20343;-69
2022/04/17 15:28:16;;;;;;;;;;;;;;;13.09;37.32;98417.34;4861625;29;19955;-69
2022/04/17 15:30:43;;;;;;;;;;;;;;;13.17;37.95;98418.09;4863318;29;19953;-68
2022/04/17 15:33:10;;;;;;;;;;;;;;;13.09;36.58;98422.16;4860138;29;19955;-68
2022/04/17 15:35:39;;;;;;;;;;;;;;;13.02;37.37;98428.59;4859058;29;19957;-68
2022/04/17 15:38:06;;;;;;;;;;;;;;;13.02;36.31;98424.97;4857806;29;19959;-68
2022/04/17 15:40:38;;;;;;;;;;;;;;;13.05;36.60;98424.16;4860331;29;19965;-68
2022/04/17 15:48:38;;;;;;;;;;;;;;;12.98;36.03;98427.78;4862893;29;19978;-69
2022/04/17 15:51:06;;;;;;;;;;;;;;;13.03;36.32;98421.75;4861518;29;19955;-68
2022/04/17 15:53:34;;;;;;;;;;;;;;;13.01;37.22;98429.78;4861439;29;20366;-70
2022/04/17 15:56:03;;;;;;;;;;;;;;;12.91;36.70;98405.41;4860808;29;19955;-68
2022/04/17 15:58:30;;;;;;;;;;;;;;;12.94;36.73;98400.97;4862264;29;19950;-69
2022/04/17 16:00:57;;;;;;;;;;;;;;;12.85;37.39;98407.06;4862778;29;19962;-67
2022/04/17 16:03:25;;;;;;;;;;;;;;;12.85;37.89;98400.63;4862630;29;19975;-67
2022/04/17 16:05:52;;;;;;;;;;;;;;;12.84;37.61;98405.44;4862275;29;19978;-68
2022/04/17 16:08:20;;;;;;;;;;;;;;;12.74;38.05;98405.53;4862509;29;19951;-68
2022/04/17 16:10:47;;;;;;;;;;;;;;;12.65;36.30;98396.75;4873582;29;19960;-68
2022/04/17 16:13:14;;;;;;;;;;;;;;;12.61;36.23;98390.34;4862913;29;19955;-69
2022/04/17 16:15:42;;;;;;;;;;;;;;;12.60;37.09;98394.34;4865721;29;19958;-69
2022/04/17 16:18:09;;;;;;;;;;;;;;;12.61;37.59;98391.16;4866453;29;19947;-68
2022/04/17 16:20:36;;;;;;;;;;;;;;;12.60;37.23;98397.16;4865281;29;19964;-67
2022/04/17 16:23:04;;;;;;;;;;;;;;;12.59;36.79;98392.78;4865872;29;19970;-68
2022/04/17 16:25:31;;;;;;;;;;;;;;;12.51;36.66;98390.00;4863775;29;19967;-68
2022/04/17 16:27:59;;;;;;;;;;;;;;;12.47;37.40;98389.22;4865049;29;19961;-68
2022/04/17 16:30:27;;;;;;;;;;;;;;;12.49;37.75;98400.03;4865802;29;19959;-68
2022/04/17 16:32:54;;;;;;;;;;;;;;;12.39;37.51;98403.69;4867385;29;19958;-68
2022/04/17 16:35:21;;;;;;;;;;;;;;;12.40;38.33;98403.28;4866476;29;19957;-68
2022/04/17 16:37:48;;;;;;;;;;;;;;;12.35;37.91;98400.88;4867174;29;19949;-68
2022/04/17 16:40:16;;;;;;;;;;;;;;;12.25;38.43;98392.53;4864544;29;19957;-68
2022/04/17 16:42:43;;;;;;;;;;;;;;;12.25;37.95;98396.13;4865556;29;19954;-69
2022/04/17 16:45:10;;;;;;;;;;;;;;;12.24;38.99;98390.94;4865880;29;19973;-69
2022/04/17 16:47:39;;;;;;;;;;;;;;;12.24;38.73;98390.94;4866721;29;19968;-68
2022/04/17 16:50:08;;;;;;;;;;;;;;;12.14;38.45;98392.56;4868039;29;19957;-68
2022/04/17 16:52:40;;;;;;;;;;;;;;;12.14;39.95;98394.56;4863926;29;20368;-68
2022/04/17 16:55:09;;;;;;;;;;;;;;;12.17;38.55;98386.16;4873279;29;19954;-72
2022/04/17 17:00:23;;;;;;;;;;;;;;;12.13;38.66;98387.38;4864397;29;19958;-68
2022/04/17 17:02:51;;;;;;;;;;;;;;;12.15;40.64;98384.97;4860481;29;19950;-68
2022/04/17 17:05:18;;;;;;;;;;;;;;;12.10;40.60;98389.00;4874700;29;20366;-68
2022/04/17 17:07:47;;;;;;;;;;;;;;;12.07;40.99;98392.59;4869470;29;19949;-68
2022/04/17 17:10:14;;;;;;;;;;;;;;;11.98;40.25;98389.44;4850017;29;19957;-68
2022/04/17 17:12:42;;;;;;;;;;;;;;;11.94;43.65;98380.22;4878287;29;19956;-68
2022/04/17 17:15:10;;;;;;;;;;;;;;;11.92;42.88;98377.03;4866211;29;19949;-68
2022/04/17 17:17:37;;;;;;;;;;;;;;;11.92;42.39;98373.41;4871996;29;19947;-68
2022/04/17 17:20:05;;;;;;;;;;;;;;;11.90;43.72;98378.63;4872697;29;19982;-68
2022/04/17 17:22:32;;;;;;;;;;;;;;;11.92;42.70;98382.63;4879297;29;20008;-68
2022/04/17 17:25:00;;;;;;;;;;;;;;;11.79;42.54;98382.25;4848488;29;19975;-68
2022/04/17 17:27:27;;;;;;;;;;;;;;;11.71;42.40;98382.69;4861821;29;19958;-68
2022/04/17 17:29:55;;;;;;;;;;;;;;;11.65;42.53;98384.25;4866001;29;19957;-69
2022/04/17 17:32:23;;;;;;;;;;;;;;;11.69;43.89;98379.47;4870274;29;19949;-69
2022/04/17 17:34:50;;;;;;;;;;;;;;;11.66;43.49;98383.06;4870704;29;19950;-68
2022/04/17 17:37:17;;;;;;;;;;;;;;;11.61;43.38;98375.88;4876698;29;20728;-68
2022/04/17 17:39:44;;;;;;;;;;;;;;;11.55;44.41;98383.06;4866644;29;19961;-68
2022/04/17 17:42:12;;;;;;;;;;;;;;;11.52;44.30;98385.88;4877666;29;19950;-68
2022/04/17 17:44:40;;;;;;;;;;;;;;;11.51;44.54;98385.09;4865252;29;19973;-68
2022/04/17 17:47:07;;;;;;;;;;;;;;;11.51;43.79;98384.28;4872125;29;19959;-68
2022/04/17 17:49:35;;;;;;;;;;;;;;;11.47;45.74;98387.09;4871146;29;19951;-68
2022/04/17 17:52:02;;;;;;;;;;;;;;;11.42;46.72;98387.47;4879376;29;19949;-69
2022/04/17 17:54:32;;;;;;;;;;;;;;;11.35;46.07;98390.28;4853215;29;20025;-68
2022/04/17 17:56:59;;;;;;;;;;;;;;;11.35;46.21;98389.47;4872474;29;20336;-68
2022/04/17 17:59:28;;;;;;;;;;;;;;;11.26;46.43;98386.31;4868876;29;20368;-69
2022/04/17 18:01:57;;;;;;;;;;;;;;;11.23;48.18;98388.69;4870351;29;19962;-68
2022/04/17 18:04:24;;;;;;;;;;;;;;;11.21;47.49;98399.50;4877872;29;19966;-68
2022/04/17 18:06:51;;;;;;;;;;;;;;;11.15;48.92;98389.88;4867257;29;19960;-68
2022/04/17 18:14:51;;;;;;;;;;;;;;;11.02;50.75;98397.09;4865110;29;20346;-69
2022/04/17 18:17:19;;;;;;;;;;;;;;;10.97;50.86;98394.69;4863632;29;19952;-69
2022/04/17 18:19:47;;;;;;;;;;;;;;;10.97;51.23;98391.91;4871942;29;20163;-69
2022/04/17 18:25:00;;;;;;;;;;;;;;;10.86;51.37;98402.25;4866510;29;19962;-69
2022/04/17 18:27:27;;;;;;;;;;;;;;;10.87;52.80;98400.28;4864338;29;19961;-69
2022/04/17 18:29:54;;;;;;;;;;;;;;;10.87;52.37;98408.66;4868033;29;19949;-69
2022/04/17 18:32:22;;;;;;;;;;;;;;;10.84;52.67;98404.66;4879729;29;19961;-69
2022/04/17 18:34:52;;;;;;;;;;;;;;;10.86;50.63;98412.63;4869367;29;20258;-69
2022/04/17 18:37:19;;;;;;;;;;;;;;;10.86;51.40;98412.63;4871560;29;19951;-69
2022/04/17 18:39:47;;;;;;;;;;;;;;;10.93;50.39;98412.69;4860214;29;19956;-69
2022/04/17 18:42:14;;;;;;;;;;;;;;;10.85;51.35;98411.06;4871160;29;20336;-69
2022/04/17 18:44:41;;;;;;;;;;;;;;;10.85;51.06;98419.44;4846589;29;19973;-68
2022/04/17 18:47:10;;;;;;;;;;;;;;;10.79;52.29;98421.84;4845265;29;19952;-69
2022/04/17 18:49:38;;;;;;;;;;;;;;;10.75;51.52;98425.81;4845498;29;19955;-68
2022/04/17 18:52:06;;;;;;;;;;;;;;;10.77;51.27;98426.22;4845880;29;19950;-68
2022/04/17 18:54:33;;;;;;;;;;;;;;;10.74;51.38;98432.59;4868953;29;19959;-68
2022/04/17 18:57:01;;;;;;;;;;;;;;;10.73;51.51;98437.41;4867047;29;19963;-69
2022/04/17 18:59:29;;;;;;;;;;;;;;;10.78;51.17;98433.44;4872349;29;19955;-70
2022/04/17 19:01:57;;;;;;;;;;;;;;;10.78;49.96;98434.22;4859871;29;20365;-69
2022/04/17 19:04:29;;;;;;;;;;;;;;;10.75;50.35;98429.41;4862922;29;19955;-69
2022/04/17 19:06:57;;;;;;;;;;;;;;;10.78;52.30;98431.44;4864411;29;19950;-69
2022/04/17 19:09:31;;;;;;;;;;;;;;;10.75;51.82;98435.00;4855711;29;19958;-69
2022/04/17 19:14:51;;;;;;;;;;;;;;;10.72;49.98;98446.19;4863485;29;19950;-69
2022/04/17 19:17:19;;;;;;;;;;;;;;;10.69;50.89;98453.38;4866549;29;20230;-69
2022/04/17 19:19:46;;;;;;;;;;;;;;;10.71;51.78;98448.16;4871109;29;19980;-68
2022/04/17 19:22:13;;;;;;;;;;;;;;;10.62;49.77;98447.75;4874048;29;20483;-68
2022/04/17 19:24:41;;;;;;;;;;;;;;;10.62;50.18;98447.75;4864667;29;19955;-69
2022/04/17 19:27:08;;;;;;;;;;;;;;;10.60;50.20;98444.56;4875487;29;19953;-69
2022/04/17 19:29:35;;;;;;;;;;;;;;;10.57;50.99;98448.13;4871936;29;20216;-69
2022/04/17 19:36:53;;;;;;;;;;;;;;;10.57;49.88;98462.91;4846478;29;19939;-70
2022/04/17 19:39:21;;;;;;;;;;;;;;;10.61;50.49;98465.75;4858679;29;19954;-68
2022/04/17 19:41:48;;;;;;;;;;;;;;;10.58;51.02;98472.13;4862110;29;19950;-69
2022/04/17 19:44:15;;;;;;;;;;;;;;;10.61;50.80;98465.75;4862676;29;19957;-69
2022/04/17 19:46:43;;;;;;;;;;;;;;;10.62;52.10;98470.13;4862318;29;19976;-68
2022/04/17 19:49:10;;;;;;;;;;;;;;;10.54;52.00;98474.88;4863600;29;19949;-68
2022/04/17 19:51:38;;;;;;;;;;;;;;;10.49;51.38;98482.84;4866445;29;20325;-68
2022/04/17 19:54:05;;;;;;;;;;;;;;;10.42;51.75;98483.63;4869723;29;19980;-69
2022/04/17 19:56:33;;;;;;;;;;;;;;;10.44;52.43;98480.44;4864419;29;19956;-69
2022/04/17 19:59:02;;;;;;;;;;;;;;;10.42;51.81;98494.00;4866037;29;19950;-69
2022/04/17 20:01:30;;;;;;;;;;;;;;;10.38;52.68;98494.00;4866402;29;19954;-69
2022/04/17 20:03:58;;;;;;;;;;;;;;;10.41;51.34;98501.59;4865649;29;19957;-68
2022/04/17 20:06:25;;;;;;;;;;;;;;;10.33;54.17;98504.75;4866336;29;19967;-68
2022/04/17 20:08:52;;;;;;;;;;;;;;;10.27;51.93;98504.31;4866266;29;19955;-68
2022/04/17 20:11:20;;;;;;;;;;;;;;;10.22;52.31;98503.91;4863745;29;19951;-68
2022/04/17 20:13:48;;;;;;;;;;;;;;;10.16;51.66;98503.44;4865473;29;19957;-68
2022/04/17 20:16:17;;;;;;;;;;;;;;;10.17;52.35;98504.25;4865267;29;19951;-69
2022/04/17 20:18:45;;;;;;;;;;;;;;;10.17;53.20;98495.88;4865409;29;19954;-69
2022/04/17 20:21:12;;;;;;;;;;;;;;;10.19;51.25;98502.69;4865672;29;19949;-68
2022/04/17 20:23:39;;;;;;;;;;;;;;;10.18;51.63;98505.84;4863173;29;20233;-68
2022/04/17 20:26:07;;;;;;;;;;;;;;;10.17;52.04;98499.44;4868204;29;19965;-68
2022/04/17 20:28:34;;;;;;;;;;;;;;;10.15;50.84;98507.44;4868999;29;19953;-67
2022/04/17 20:31:02;;;;;;;;;;;;;;;10.20;50.93;98504.25;4864884;29;19959;-68
2022/04/17 20:33:30;;;;;;;;;;;;;;;10.16;50.32;98505.44;4849191;29;19949;-68
2022/04/17 20:35:58;;;;;;;;;;;;;;;10.15;50.69;98501.84;4865520;29;19962;-68
2022/04/17 20:38:25;;;;;;;;;;;;;;;10.11;49.15;98506.59;4865675;29;19956;-68
2022/04/17 20:40:52;;;;;;;;;;;;;;;10.07;50.24;98505.78;4877737;29;20363;-68
2022/04/17 20:51:37;;;;;;;;;;;;;;;10.06;48.29;98515.34;4865219;29;19956;-69
2022/04/17 20:54:05;;;;;;;;;;;;;;;10.09;46.47;98499.78;4866352;29;19956;-68
